Time;durP1;ratioP1;P1;durP2;ratioP2;P2;SDS_P1;SDS_P2;PMS_P1;PMS_P2;Temp;Humidity;BMP_temperature;BMP_pressure;BME280_temperature;BME280_humidity;BME280_pressure;Samples;Min_cycle;Max_cycle;Signal;HPM_P1;HPM_P2
2023/06/24 00:02:45;;;;;;;17.00;14.95;;;;;;;22.31;62.94;100304.26;1736435;82;21345;-58
2023/06/24 00:05:51;;;;;;;18.92;15.38;;;;;;;22.26;63.02;100301.37;1737188;82;21355;-57
2023/06/24 00:09:00;;;;;;;22.15;14.63;;;;;;;22.21;63.14;100302.14;1735786;82;21283;-58
2023/06/24 00:12:06;;;;;;;17.85;14.98;;;;;;;22.16;63.25;100304.84;1743582;81;21398;-60
2023/06/24 00:15:13;;;;;;;16.82;14.90;;;;;;;22.11;63.36;100308.39;1736305;81;21410;-58
2023/06/24 00:18:21;;;;;;;17.52;14.45;;;;;;;22.07;63.49;100311.37;1740214;81;21319;-59
2023/06/24 00:21:31;;;;;;;17.95;15.43;;;;;;;22.02;63.56;100309.89;1741360;80;21360;-57
2023/06/24 00:24:37;;;;;;;17.73;15.23;;;;;;;21.97;63.70;100304.25;1746418;81;21359;-58
2023/06/24 00:27:43;;;;;;;18.55;15.20;;;;;;;21.92;63.83;100300.51;1749852;81;21390;-59
2023/06/24 00:30:49;;;;;;;16.82;14.58;;;;;;;21.89;63.95;100301.02;1742561;81;21410;-59
2023/06/24 00:33:56;;;;;;;17.17;15.00;;;;;;;21.85;64.08;100304.84;1744524;81;21347;-58
2023/06/24 00:37:04;;;;;;;16.20;14.53;;;;;;;21.82;64.18;100298.38;1746353;81;21699;-59
2023/06/24 00:40:10;;;;;;;16.90;14.53;;;;;;;21.78;64.28;100297.75;1748389;81;21216;-59
2023/06/24 00:43:16;;;;;;;16.17;14.53;;;;;;;21.75;64.40;100299.11;1735947;82;21210;-58
2023/06/24 00:46:22;;;;;;;17.37;14.50;;;;;;;21.72;64.52;100294.55;1738687;81;21995;-57
2023/06/24 00:49:28;;;;;;;21.68;16.48;;;;;;;21.68;64.64;100288.62;1735513;81;21745;-57
2023/06/24 00:52:36;;;;;;;23.40;17.57;;;;;;;21.65;64.77;100283.55;1742632;81;21403;-57
2023/06/24 00:55:42;;;;;;;23.65;18.45;;;;;;;21.63;64.89;100291.84;1736285;82;21402;-58
2023/06/24 00:58:48;;;;;;;26.27;18.77;;;;;;;21.60;65.03;100298.77;1738096;81;21334;-57
2023/06/24 01:01:55;;;;;;;25.60;17.85;;;;;;;21.56;65.13;100300.38;1747027;81;21367;-58
2023/06/24 01:05:03;;;;;;;28.40;18.50;;;;;;;21.54;65.22;100301.70;1736813;82;21394;-58
2023/06/24 01:08:15;;;;;;;21.02;17.02;;;;;;;21.50;65.33;100304.13;1734584;82;21383;-58
2023/06/24 01:11:17;;;;;;;17.62;15.70;;;;;;;21.46;65.42;100302.09;1736346;79;21352;-58
2023/06/24 01:14:23;;;;;;;17.90;15.30;;;;;;;21.43;65.50;100309.03;1709984;84;21442;-58
2023/06/24 01:17:56;;;;;;;19.27;15.75;;;;;;;21.40;65.63;100303.09;1708949;84;21899;-58
2023/06/24 01:21:20;;;;;;;20.57;16.42;;;;;;;21.37;65.75;100305.84;1731361;82;21208;-59
2023/06/24 01:24:48;;;;;;;18.50;15.83;;;;;;;21.33;65.88;100301.84;1731105;82;21704;-59
2023/06/24 01:28:29;;;;;;;21.25;16.67;;;;;;;21.30;66.02;100304.27;1709420;84;21256;-60
2023/06/24 01:31:40;;;;;;;17.02;15.15;;;;;;;21.26;66.16;100308.66;1735957;82;21360;-58
2023/06/24 01:34:57;;;;;;;20.08;15.68;;;;;;;21.23;66.31;100303.59;1772480;81;21362;-58
2023/06/24 01:38:01;;;;;;;19.95;16.70;;;;;;;21.21;66.46;100312.19;1738707;82;21857;-58
2023/06/24 01:41:08;;;;;;;17.35;15.45;;;;;;;21.20;66.59;100313.27;1738582;81;21377;-58
2023/06/24 01:44:15;;;;;;;18.70;15.20;;;;;;;21.19;66.69;100321.86;1772026;81;21887;-58
2023/06/24 01:47:20;;;;;;;18.07;16.17;;;;;;;21.18;66.81;100320.19;1738804;82;21860;-58
2023/06/24 01:50:28;;;;;;;20.12;16.35;;;;;;;21.18;66.94;100322.97;1728119;82;21379;-59
2023/06/24 01:53:38;;;;;;;18.62;15.98;;;;;;;21.19;67.05;100326.90;1772493;81;21385;-57
2023/06/24 01:56:47;;;;;;;19.50;17.07;;;;;;;21.19;67.15;100324.11;1772385;80;21358;-57
2023/06/24 01:59:55;;;;;;;18.85;16.60;;;;;;;21.20;67.27;100320.80;1771751;81;21343;-57
2023/06/24 02:03:13;;;;;;;18.05;16.20;;;;;;;21.21;67.36;100328.90;1739130;82;21887;-58
2023/06/24 02:06:20;;;;;;;18.07;16.27;;;;;;;21.21;67.45;100321.08;1709833;84;21312;-57
2023/06/24 02:09:26;;;;;;;18.32;15.63;;;;;;;21.21;67.56;100314.13;1709390;84;21435;-57
2023/06/24 02:12:32;;;;;;;19.98;16.93;;;;;;;21.23;67.62;100309.16;1713053;79;21334;-57
2023/06/24 02:15:38;;;;;;;19.40;16.07;;;;;;;21.26;67.70;100317.88;1772536;81;22151;-58
2023/06/24 02:18:44;;;;;;;21.48;16.10;;;;;;;21.30;67.82;100315.41;1772498;80;21366;-57
2023/06/24 02:21:51;;;;;;;26.10;17.82;;;;;;;21.35;67.92;100315.52;1735608;82;21757;-57
2023/06/24 02:24:58;;;;;;;21.35;19.17;;;;;;;21.39;68.00;100311.17;1736330;82;21714;-58
2023/06/24 02:28:03;;;;;;;21.45;18.77;;;;;;;21.42;68.08;100311.49;1771922;81;21351;-58
2023/06/24 02:31:09;;;;;;;24.12;20.97;;;;;;;21.45;68.14;100312.42;1772537;81;21338;-58
2023/06/24 02:34:15;;;;;;;19.48;17.48;;;;;;;21.49;68.19;100308.03;1772632;80;21382;-57
2023/06/24 02:37:23;;;;;;;21.25;19.07;;;;;;;21.53;68.30;100304.20;1735636;82;21252;-59
2023/06/24 02:40:30;;;;;;;18.82;16.82;;;;;;;21.58;68.40;100309.88;1735370;82;21260;-60
2023/06/24 02:43:37;;;;;;;20.95;16.23;;;;;;;21.62;68.51;100309.66;1772153;81;21346;-60
2023/06/24 02:46:44;;;;;;;18.02;16.23;;;;;;;21.67;68.59;100310.63;1771978;80;21352;-60
2023/06/24 02:49:52;;;;;;;19.90;16.48;;;;;;;21.72;68.71;100312.66;1738322;82;21361;-58
2023/06/24 02:52:57;;;;;;;20.27;17.17;;;;;;;21.77;68.78;100315.01;1738709;82;21363;-58
2023/06/24 02:56:04;;;;;;;29.92;20.08;;;;;;;21.81;68.81;100313.42;1738194;82;21367;-58
2023/06/24 02:59:12;;;;;;;22.30;18.90;;;;;;;21.85;68.79;100320.17;1738441;82;21363;-58
2023/06/24 03:02:18;;;;;;;19.02;16.60;;;;;;;21.89;68.73;100324.71;1728124;82;21268;-58
2023/06/24 03:05:25;;;;;;;21.37;18.67;;;;;;;21.91;68.79;100328.10;1750870;81;21182;-58
2023/06/24 03:08:32;;;;;;;22.75;18.92;;;;;;;21.94;68.92;100333.17;1735930;82;21256;-58
2023/06/24 03:11:39;;;;;;;23.32;19.27;;;;;;;21.97;69.05;100332.66;1735766;82;21240;-59
2023/06/24 03:14:48;;;;;;;27.70;20.88;;;;;;;22.01;69.13;100343.06;1770223;79;21370;-58
2023/06/24 03:17:57;;;;;;;25.43;21.82;;;;;;;22.05;69.10;100341.48;1734389;82;21695;-58
2023/06/24 03:21:03;;;;;;;25.60;21.10;;;;;;;22.08;69.04;100339.58;1771723;81;21323;-59
2023/06/24 03:24:10;;;;;;;31.37;21.15;;;;;;;22.10;69.06;100344.33;1734988;82;21371;-59
2023/06/24 03:27:16;;;;;;;25.97;21.15;;;;;;;22.11;69.11;100337.67;1734798;82;21841;-59
2023/06/24 03:30:25;;;;;;;27.15;22.55;;;;;;;22.15;69.26;100337.45;1772328;80;21351;-58
2023/06/24 03:33:31;;;;;;;27.60;20.30;;;;;;;22.20;69.35;100343.66;1772424;81;21342;-59
2023/06/24 03:36:40;;;;;;;22.70;18.75;;;;;;;22.23;69.40;100337.04;1734699;82;21186;-59
2023/06/24 03:39:48;;;;;;;20.62;18.12;;;;;;;22.31;69.53;100341.92;1768756;81;21350;-58
2023/06/24 03:42:54;;;;;;;21.73;19.00;;;;;;;22.39;69.65;100345.11;1748044;81;21174;-58
2023/06/24 03:46:02;;;;;;;27.27;19.15;;;;;;;22.50;69.74;100345.57;1772745;80;21828;-58
2023/06/24 03:49:08;;;;;;;20.27;18.17;;;;;;;22.59;69.82;100348.83;1735331;82;21343;-58
2023/06/24 03:52:16;;;;;;;20.88;18.65;;;;;;;22.69;69.89;100349.81;1734503;82;21864;-57
2023/06/24 03:55:22;;;;;;;21.07;18.85;;;;;;;22.79;69.92;100356.11;1734488;82;21363;-57
2023/06/24 03:58:28;;;;;;;20.08;17.62;;;;;;;22.86;69.93;100352.06;1772525;81;21366;-59
2023/06/24 04:01:36;;;;;;;22.90;19.10;;;;;;;22.96;69.96;100355.55;1772363;81;21347;-59
2023/06/24 04:04:45;;;;;;;21.12;18.92;;;;;;;23.02;69.97;100355.37;1735090;82;21359;-59
2023/06/24 04:07:52;;;;;;;20.82;17.80;;;;;;;23.11;70.03;100355.21;1738918;82;21355;-59
2023/06/24 04:11:03;;;;;;;20.25;18.05;;;;;;;23.22;70.02;100351.45;1772499;81;21864;-58
2023/06/24 04:14:06;;;;;;;22.25;17.35;;;;;;;23.34;69.99;100349.98;1735614;82;21848;-58
2023/06/24 04:17:12;;;;;;;20.68;18.15;;;;;;;23.46;70.00;100354.87;1772146;80;21330;-58
2023/06/24 04:20:20;;;;;;;18.27;16.25;;;;;;;23.57;69.99;100350.55;1734670;82;21371;-59
2023/06/24 04:23:25;;;;;;;20.05;17.75;;;;;;;23.70;69.94;100345.64;1735268;82;21814;-58
2023/06/24 04:26:31;;;;;;;21.07;16.97;;;;;;;23.83;69.89;100358.67;1769237;81;21355;-58
2023/06/24 04:29:37;;;;;;;18.77;16.73;;;;;;;23.97;69.90;100366.11;1735163;82;21889;-58
2023/06/24 04:32:43;;;;;;;19.60;17.07;;;;;;;24.07;69.90;100362.86;1734911;82;21375;-58
2023/06/24 04:35:51;;;;;;;19.75;16.60;;;;;;;24.16;69.82;100359.04;1771269;81;21336;-58
2023/06/24 04:38:57;;;;;;;19.00;16.82;;;;;;;24.25;69.70;100346.25;1772193;81;21371;-59
2023/06/24 04:42:05;;;;;;;18.42;16.55;;;;;;;24.36;69.76;100340.48;1734454;82;21375;-59
2023/06/24 04:45:13;;;;;;;21.70;17.80;;;;;;;24.49;69.79;100341.44;1771245;81;21362;-59
2023/06/24 04:48:18;;;;;;;17.87;16.05;;;;;;;24.63;69.73;100339.01;1734474;82;21348;-59
2023/06/24 04:51:24;;;;;;;24.57;16.42;;;;;;;24.74;69.61;100332.41;1771931;81;21339;-59
2023/06/24 04:54:29;;;;;;;19.92;16.05;;;;;;;24.84;69.48;100343.14;1734308;82;21744;-58
2023/06/24 04:57:38;;;;;;;17.95;16.05;;;;;;;24.94;69.29;100338.98;1791272;79;21334;-58
2023/06/24 05:00:38;;;;;;;18.60;16.70;;;;;;;25.02;69.17;100341.27;1803550;79;21326;-57
2023/06/24 05:03:45;;;;;;;18.98;16.23;;;;;;;25.09;69.17;100342.44;1796321;79;21860;-58
2023/06/24 05:06:51;;;;;;;20.37;16.95;;;;;;;25.14;69.03;100341.61;1802772;79;21362;-58
2023/06/24 05:09:59;;;;;;;18.90;16.12;;;;;;;25.17;69.03;100341.92;1806552;79;21835;-52
2023/06/24 05:13:04;;;;;;;17.75;15.90;;;;;;;25.24;68.99;100344.48;1803054;79;21344;-52
2023/06/24 05:16:10;;;;;;;17.80;15.75;;;;;;;25.25;68.83;100335.80;1801997;79;21895;-52
2023/06/24 05:19:17;;;;;;;18.25;15.95;;;;;;;25.29;68.67;100348.14;1802034;79;21418;-53
2023/06/24 05:22:23;;;;;;;17.55;14.83;;;;;;;25.30;68.56;100344.23;1802889;79;21418;-53
2023/06/24 05:25:29;;;;;;;17.50;15.78;;;;;;;25.28;68.45;100344.20;1773742;79;21570;-52
2023/06/24 05:28:35;;;;;;;20.37;16.17;;;;;;;25.28;68.53;100347.86;1770938;81;21168;-52
2023/06/24 05:31:41;;;;;;;17.90;16.00;;;;;;;25.30;68.56;100345.64;1771886;79;21347;-54
2023/06/24 05:34:47;;;;;;;20.97;16.35;;;;;;;25.34;68.52;100349.60;1770886;80;21378;-53
2023/06/24 05:37:54;;;;;;;19.05;17.12;;;;;;;25.38;68.40;100351.30;1771272;81;21190;-53
2023/06/24 05:41:02;;;;;;;19.70;17.75;;;;;;;25.41;68.36;100359.17;1771669;81;21286;-54
2023/06/24 05:44:11;;;;;;;21.12;17.95;;;;;;;25.42;68.27;100356.67;1771745;81;21962;-53
2023/06/24 05:47:16;;;;;;;21.80;17.98;;;;;;;25.43;68.21;100362.00;1771919;81;21339;-54
2023/06/24 05:50:23;;;;;;;19.07;17.12;;;;;;;25.48;68.21;100363.39;1772854;80;21331;-52
2023/06/24 05:53:28;;;;;;;20.02;17.55;;;;;;;25.51;68.10;100366.23;1772513;81;21726;-53
2023/06/24 05:56:33;;;;;;;24.55;17.52;;;;;;;25.53;68.00;100370.44;1771509;81;21382;-55
2023/06/24 05:59:40;;;;;;;18.27;16.32;;;;;;;25.52;67.87;100377.72;1772316;80;21358;-53
2023/06/24 06:02:50;;;;;;;18.27;16.50;;;;;;;25.51;67.77;100377.45;1772214;81;21358;-52
2023/06/24 06:05:56;;;;;;;23.20;17.85;;;;;;;25.51;67.77;100376.05;1772327;80;21355;-52
2023/06/24 06:09:02;;;;;;;20.92;17.23;;;;;;;25.54;67.77;100376.90;1751967;81;21192;-52
2023/06/24 06:12:08;;;;;;;21.35;17.27;;;;;;;25.56;67.79;100373.27;1771726;81;21342;-52
2023/06/24 06:15:16;;;;;;;19.77;17.77;;;;;;;25.58;67.75;100380.28;1772907;81;21887;-52
2023/06/24 06:18:22;;;;;;;19.50;17.45;;;;;;;25.63;67.80;100377.50;1768420;80;21489;-53
2023/06/24 06:21:27;;;;;;;18.85;16.95;;;;;;;25.66;67.73;100378.90;1772635;81;21335;-53
2023/06/24 06:24:35;;;;;;;22.07;19.17;;;;;;;25.69;67.69;100368.56;1772546;81;21236;-54
2023/06/24 06:27:41;;;;;;;22.98;20.43;;;;;;;25.70;67.69;100367.43;1772407;81;21378;-53
2023/06/24 06:30:46;;;;;;;22.67;18.67;;;;;;;25.72;67.70;100368.01;1772480;81;21378;-53
2023/06/24 06:33:53;;;;;;;20.15;17.92;;;;;;;25.70;67.70;100364.08;1772528;80;21197;-53
2023/06/24 06:37:00;;;;;;;20.00;17.60;;;;;;;25.70;67.67;100368.28;1776103;79;21462;-53
2023/06/24 06:40:05;;;;;;;20.15;18.05;;;;;;;25.71;67.69;100375.56;1774853;79;21409;-53
2023/06/24 06:43:14;;;;;;;20.90;18.75;;;;;;;25.80;67.74;100370.28;1796463;79;21363;-53
2023/06/24 06:46:19;;;;;;;18.87;16.90;;;;;;;25.89;67.72;100355.98;1767609;79;21203;-53
2023/06/24 06:49:25;;;;;;;19.85;17.75;;;;;;;25.94;67.61;100349.00;1771683;81;21346;-53
2023/06/24 06:52:31;;;;;;;18.85;16.95;;;;;;;26.02;67.62;100350.70;1771004;81;21357;-53
2023/06/24 06:55:39;;;;;;;19.82;17.73;;;;;;;26.09;67.60;100342.88;1771268;80;21192;-52
2023/06/24 06:58:46;;;;;;;18.62;16.73;;;;;;;26.18;67.60;100350.17;1753785;81;21207;-53
2023/06/24 07:01:51;;;;;;;20.45;17.73;;;;;;;26.27;67.60;100348.52;1787641;79;21249;-52
2023/06/24 07:04:59;;;;;;;16.82;15.23;;;;;;;26.37;67.65;100345.14;1801411;79;21343;-52
2023/06/24 07:08:06;;;;;;;16.67;14.93;;;;;;;26.51;67.57;100348.25;1802091;79;21401;-52
2023/06/24 07:11:12;;;;;;;17.20;15.38;;;;;;;26.61;67.46;100342.61;1802973;79;21693;-52
2023/06/24 07:14:20;;;;;;;17.37;15.63;;;;;;;26.69;67.43;100335.05;1803603;79;21370;-52
2023/06/24 07:17:25;;;;;;;18.15;15.43;;;;;;;26.82;67.46;100329.42;1803117;79;21371;-51
2023/06/24 07:20:33;;;;;;;18.37;16.37;;;;;;;26.93;67.35;100334.75;1803484;79;21385;-52
2023/06/24 07:23:41;;;;;;;16.85;15.15;;;;;;;27.02;67.29;100337.24;1803564;79;21365;-52
2023/06/24 07:26:48;;;;;;;15.85;14.25;;;;;;;27.11;67.21;100346.80;1803427;79;21220;-52
2023/06/24 07:29:54;;;;;;;20.57;18.12;;;;;;;27.19;67.08;100347.62;1802765;79;21409;-52
2023/06/24 07:33:05;;;;;;;19.17;15.35;;;;;;;27.26;66.95;100347.30;1803109;79;21350;-52
2023/06/24 07:36:10;;;;;;;17.82;15.30;;;;;;;27.34;66.91;100354.63;1802927;79;21727;-52
2023/06/24 07:39:15;;;;;;;18.20;14.40;;;;;;;27.41;66.87;100348.14;1802608;79;21441;-52
2023/06/24 07:42:21;;;;;;;15.93;14.18;;;;;;;27.49;66.69;100348.11;1782803;79;21816;-53
2023/06/24 07:45:28;;;;;;;16.87;15.25;;;;;;;27.56;66.65;100350.88;1803157;79;21344;-53
2023/06/24 07:48:34;;;;;;;16.05;14.33;;;;;;;27.65;66.55;100358.98;1771711;81;21362;-52
2023/06/24 07:51:39;;;;;;;15.32;13.78;;;;;;;27.73;66.37;100362.60;1771238;81;21347;-53
2023/06/24 07:54:48;;;;;;;15.43;13.88;;;;;;;27.83;66.25;100354.67;1772371;81;21385;-52
2023/06/24 07:57:55;;;;;;;15.58;13.98;;;;;;;27.90;66.09;100345.39;1771474;80;21859;-54
2023/06/24 08:00:59;;;;;;;14.83;13.18;;;;;;;28.00;65.93;100348.72;1771102;81;21844;-53
2023/06/24 08:04:06;;;;;;;15.85;14.35;;;;;;;28.08;65.75;100349.52;1770829;80;21381;-54
2023/06/24 08:07:15;;;;;;;15.05;13.45;;;;;;;28.16;65.59;100355.94;1798165;79;21761;-54
2023/06/24 08:10:20;;;;;;;15.93;13.13;;;;;;;28.25;65.44;100355.02;1802294;79;21900;-53
2023/06/24 08:13:26;;;;;;;17.23;12.90;;;;;;;28.34;65.26;100346.77;1802188;79;21958;-53
2023/06/24 08:16:33;;;;;;;16.60;13.80;;;;;;;28.44;65.10;100343.89;1789483;79;21355;-53
2023/06/24 08:19:39;;;;;;;14.60;12.68;;;;;;;28.54;64.87;100350.89;1791292;79;21849;-53
2023/06/24 08:22:45;;;;;;;15.63;13.48;;;;;;;28.60;64.58;100347.73;1796538;79;21189;-52
2023/06/24 08:25:52;;;;;;;15.58;14.00;;;;;;;28.68;64.36;100343.44;1802499;79;21409;-52
2023/06/24 08:29:00;;;;;;;16.23;14.47;;;;;;;28.77;64.11;100344.47;1802541;79;21358;-53
2023/06/24 08:32:07;;;;;;;15.58;14.05;;;;;;;28.82;63.68;100340.20;1799426;79;21358;-53
2023/06/24 08:35:14;;;;;;;14.65;13.05;;;;;;;28.80;63.39;100349.51;1770309;81;21550;-52
2023/06/24 08:38:21;;;;;;;14.45;13.10;;;;;;;28.77;63.20;100348.70;1771116;81;21220;-52
2023/06/24 08:41:26;;;;;;;15.25;13.68;;;;;;;28.90;63.09;100346.60;1771173;81;21342;-52
2023/06/24 08:44:32;;;;;;;12.37;11.08;;;;;;;29.10;62.87;100347.27;1771339;81;21373;-53
2023/06/24 08:47:38;;;;;;;14.47;12.25;;;;;;;29.30;62.28;100350.44;1771643;81;21386;-52
2023/06/24 08:50:47;;;;;;;13.70;11.28;;;;;;;29.30;62.28;100350.44;1784176;79;21337;-51
2023/06/24 08:53:52;;;;;;;14.63;12.00;;;;;;;29.58;61.59;100342.47;1787419;79;21361;-53
2023/06/24 08:56:58;;;;;;;12.55;11.12;;;;;;;29.58;61.59;100342.47;1787559;80;21710;-52
2023/06/24 09:00:04;;;;;;;11.83;10.68;;;;;;;29.75;61.36;100342.83;1770986;81;21374;-53
2023/06/24 09:03:11;;;;;;;12.15;10.90;;;;;;;29.89;60.96;100334.47;1771134;81;22288;-53
2023/06/24 09:06:18;;;;;;;11.63;10.43;;;;;;;30.06;60.85;100332.80;1747762;80;21988;-54
2023/06/24 09:09:29;;;;;;;12.58;11.38;;;;;;;30.26;60.35;100335.90;1771047;80;21958;-52
2023/06/24 09:12:35;;;;;;;11.65;10.48;;;;;;;30.45;59.90;100326.83;1771403;81;21354;-52
2023/06/24 09:15:45;;;;;;;11.80;10.23;;;;;;;30.60;59.43;100330.23;1791054;79;21451;-52
2023/06/24 09:18:56;;;;;;;11.28;9.15;;;;;;;30.71;58.96;100338.55;1802233;79;21748;-52
2023/06/24 09:22:04;;;;;;;9.15;8.25;;;;;;;30.81;58.44;100335.58;1784397;79;21402;-52
2023/06/24 09:25:09;;;;;;;10.00;9.00;;;;;;;30.95;57.97;100329.38;1771807;81;21370;-53
2023/06/24 09:28:16;;;;;;;10.28;9.28;;;;;;;31.17;57.45;100336.58;1771877;80;21363;-53
2023/06/24 09:31:23;;;;;;;9.80;8.08;;;;;;;31.35;56.90;100326.61;1770419;80;21367;-54
2023/06/24 09:34:32;;;;;;;9.00;8.10;;;;;;;31.46;56.34;100347.89;1785846;79;21362;-53
2023/06/24 09:37:39;;;;;;;9.90;7.78;;;;;;;31.45;55.61;100340.56;1793832;79;21367;-52
2023/06/24 09:40:44;;;;;;;9.20;8.08;;;;;;;31.41;55.15;100332.42;1784736;79;21200;-53
2023/06/24 09:43:52;;;;;;;9.00;7.78;;;;;;;31.49;54.85;100325.21;1785774;79;21244;-52
2023/06/24 09:46:58;;;;;;;8.70;7.80;;;;;;;31.58;54.36;100316.23;1803149;79;21374;-53
2023/06/24 09:50:03;;;;;;;9.13;8.23;;;;;;;31.69;53.88;100321.94;1803448;79;21409;-53
2023/06/24 09:53:10;;;;;;;9.03;8.13;;;;;;;31.79;53.45;100320.30;1792365;79;21435;-53
2023/06/24 09:56:15;;;;;;;10.43;8.10;;;;;;;31.84;52.95;100307.48;1712574;82;21202;-53
2023/06/24 09:59:25;;;;;;;8.58;7.75;;;;;;;31.96;52.52;100307.75;1785945;79;21401;-54
2023/06/24 10:02:30;;;;;;;8.45;7.53;;;;;;;32.08;51.96;100301.54;1766550;79;21180;-54
2023/06/24 10:05:36;;;;;;;8.35;7.37;;;;;;;32.20;51.55;100304.06;1774763;79;21339;-54
2023/06/24 10:08:43;;;;;;;10.38;7.85;;;;;;;32.29;51.03;100309.78;1769164;81;21185;-53
2023/06/24 10:11:48;;;;;;;8.50;7.47;;;;;;;32.33;50.40;100307.43;1769763;80;21848;-53
2023/06/24 10:14:53;;;;;;;7.53;6.83;;;;;;;32.49;50.00;100307.31;1766105;80;21209;-53
2023/06/24 10:17:59;;;;;;;7.92;7.22;;;;;;;32.66;49.45;100305.19;1764196;81;21200;-54
2023/06/24 10:21:06;;;;;;;7.87;7.08;;;;;;;32.79;48.92;100299.42;1764840;81;21757;-53
2023/06/24 10:24:14;;;;;;;8.25;7.45;;;;;;;32.94;48.47;100295.38;1765032;81;21220;-53
2023/06/24 10:27:23;;;;;;;8.93;7.65;;;;;;;33.13;48.08;100295.97;1764849;81;21209;-54
2023/06/24 10:30:31;;;;;;;9.28;7.12;;;;;;;33.30;47.65;100297.48;1764553;81;21260;-54
2023/06/24 10:33:38;;;;;;;10.08;7.00;;;;;;;33.25;46.99;100297.02;1781361;79;21416;-54
2023/06/24 10:36:46;;;;;;;7.90;7.10;;;;;;;33.31;46.58;100298.58;1803448;79;21363;-53
2023/06/24 10:40:12;;;;;;;7.20;6.50;;;;;;;33.42;46.09;100289.77;1795032;79;21355;-53
2023/06/24 10:43:34;;;;;;;9.43;7.72;;;;;;;33.53;45.56;100289.72;1771221;80;21394;-52
2023/06/24 10:46:41;;;;;;;8.28;7.42;;;;;;;33.62;45.11;100289.18;1771479;81;21343;-52
2023/06/24 10:49:50;;;;;;;8.00;7.20;;;;;;;33.79;44.75;100280.69;1771896;81;21390;-53
2023/06/24 10:53:01;;;;;;;8.13;7.33;;;;;;;33.91;44.29;100293.67;1775342;79;21374;-52
2023/06/24 10:56:08;;;;;;;8.43;7.05;;;;;;;33.98;43.71;100292.61;1787156;79;21391;-52
2023/06/24 10:59:13;;;;;;;8.00;7.20;;;;;;;33.94;43.16;100293.01;1803497;79;21372;-53
2023/06/24 11:02:25;;;;;;;7.75;6.97;;;;;;;33.84;42.64;100298.39;1803261;79;21341;-53
2023/06/24 11:05:30;;;;;;;8.78;6.40;;;;;;;33.82;42.36;100288.54;1803008;79;21420;-54
2023/06/24 11:08:35;;;;;;;8.03;7.20;;;;;;;33.95;42.18;100284.75;1805990;79;21448;-53
2023/06/24 11:11:42;;;;;;;9.65;6.80;;;;;;;34.07;41.91;100282.08;1803246;79;22191;-54
2023/06/24 11:14:48;;;;;;;8.88;7.08;;;;;;;34.12;41.61;100287.59;1803922;79;21388;-54
2023/06/24 11:17:58;;;;;;;8.88;6.80;;;;;;;34.27;41.36;100285.09;1803682;79;21389;-54
2023/06/24 11:21:03;;;;;;;9.48;8.20;;;;;;;34.38;40.99;100281.30;1803589;79;21313;-54
2023/06/24 11:24:11;;;;;;;9.30;7.97;;;;;;;34.33;40.51;100265.86;1802457;79;21869;-53
2023/06/24 11:27:21;;;;;;;10.38;8.50;;;;;;;34.31;40.30;100259.67;1803743;79;22178;-54
2023/06/24 11:30:27;;;;;;;8.93;7.90;;;;;;;34.28;40.09;100272.53;1781516;79;21350;-54
2023/06/24 11:33:36;;;;;;;8.48;7.67;;;;;;;34.07;39.93;100259.34;1788744;79;21331;-53
2023/06/24 11:36:43;;;;;;;12.70;8.53;;;;;;;34.01;39.95;100257.84;1802517;79;21421;-53
2023/06/24 11:39:49;;;;;;;9.68;7.72;;;;;;;33.89;39.88;100256.19;1801695;79;21386;-54
2023/06/24 11:42:57;;;;;;;8.33;7.45;;;;;;;33.89;40.00;100246.25;1802845;79;21354;-53
2023/06/24 11:46:03;;;;;;;9.63;7.80;;;;;;;33.95;39.92;100242.13;1802819;79;21841;-53
2023/06/24 11:49:16;;;;;;;9.33;7.50;;;;;;;33.93;39.81;100241.05;1803144;79;21370;-53
2023/06/24 11:52:21;;;;;;;7.65;6.92;;;;;;;33.84;39.66;100233.66;1803414;79;22203;-53
2023/06/24 11:55:32;;;;;;;9.53;7.37;;;;;;;33.81;39.73;100237.98;1782646;79;21359;-53
2023/06/24 11:58:42;;;;;;;8.93;8.03;;;;;;;33.88;39.61;100237.48;1733916;82;21697;-52
2023/06/24 12:01:48;;;;;;;7.60;6.80;;;;;;;33.82;39.56;100230.30;1734206;82;21956;-52
2023/06/24 12:04:58;;;;;;;8.90;7.15;;;;;;;33.83;39.63;100230.55;1771559;81;21217;-53
2023/06/24 12:08:17;;;;;;;7.67;6.95;;;;;;;33.86;39.50;100229.88;1771764;81;21351;-53
2023/06/24 12:11:24;;;;;;;11.20;7.72;;;;;;;33.79;39.28;100229.55;1746157;81;21873;-54
2023/06/24 12:14:31;;;;;;;8.85;7.50;;;;;;;33.73;39.19;100228.86;1702938;82;21832;-54
2023/06/24 12:17:37;;;;;;;7.97;7.17;;;;;;;33.62;39.01;100224.67;1776862;79;21853;-58
2023/06/24 12:20:44;;;;;;;8.58;7.72;;;;;;;33.58;38.98;100231.36;1803226;79;21864;-58
2023/06/24 12:23:51;;;;;;;7.67;6.83;;;;;;;33.60;39.12;100219.09;1801033;78;21905;-59
2023/06/24 12:26:58;;;;;;;9.03;8.10;;;;;;;33.70;39.22;100217.36;1803439;79;21311;-59
2023/06/24 12:30:05;;;;;;;9.00;7.60;;;;;;;33.72;38.96;100225.78;1803782;79;21279;-56
2023/06/24 12:33:11;;;;;;;10.65;8.45;;;;;;;33.67;38.81;100227.36;1803669;78;21335;-58
2023/06/24 12:36:17;;;;;;;10.32;8.88;;;;;;;33.56;38.71;100226.59;1804159;79;21843;-57
2023/06/24 12:39:23;;;;;;;9.78;8.70;;;;;;;33.20;38.62;100232.49;1804081;78;21398;-58
2023/06/24 12:42:29;;;;;;;11.65;9.70;;;;;;;32.75;38.58;100236.02;1804165;79;21386;-57
2023/06/24 12:45:38;;;;;;;15.20;9.30;;;;;;;32.33;38.76;100237.15;1803954;79;21370;-57
2023/06/24 12:48:45;;;;;;;12.23;9.58;;;;;;;31.94;38.97;100237.83;1804013;79;21359;-58
2023/06/24 12:51:51;;;;;;;14.47;9.63;;;;;;;31.69;39.36;100234.16;1804143;79;21343;-59
2023/06/24 12:54:56;;;;;;;12.73;9.70;;;;;;;31.55;39.83;100226.28;1804063;78;21351;-57
2023/06/24 12:58:02;;;;;;;10.53;9.40;;;;;;;31.55;40.26;100230.53;1804147;79;21947;-57
2023/06/24 13:01:09;;;;;;;11.50;9.75;;;;;;;31.71;40.71;100224.78;1799904;79;21378;-57
2023/06/24 13:04:19;;;;;;;10.85;9.75;;;;;;;31.73;41.04;100226.13;1801743;78;21248;-59
2023/06/24 13:07:27;;;;;;;10.35;9.25;;;;;;;31.68;41.35;100232.50;1801385;79;21279;-59
2023/06/24 13:10:34;;;;;;;12.90;9.78;;;;;;;31.45;41.48;100231.59;1779354;79;21239;-58
2023/06/24 13:13:42;;;;;;;11.35;9.43;;;;;;;31.13;41.60;100237.34;1766100;79;21601;-60
2023/06/24 13:16:48;;;;;;;12.37;9.88;;;;;;;30.82;42.00;100234.05;1791848;79;21939;-58
2023/06/24 13:19:54;;;;;;;10.88;9.83;;;;;;;30.53;42.38;100238.52;1803469;79;21220;-58
2023/06/24 13:23:03;;;;;;;10.08;9.10;;;;;;;30.34;42.80;100244.80;1803506;79;21339;-58
2023/06/24 13:26:10;;;;;;;10.08;9.05;;;;;;;30.14;43.14;100256.42;1803090;78;21385;-60
2023/06/24 13:31:43;;;;;;;10.43;9.33;;;;;;;29.74;43.61;100291.77;1832660;76;28051;-57
2023/06/24 13:34:48;;;;;;;15.68;9.68;;;;;;;29.50;43.77;100330.44;1777841;79;21181;-57
2023/06/24 13:37:54;;;;;;;11.65;8.15;;;;;;;29.23;44.08;100349.38;1773397;79;21201;-58
2023/06/24 13:41:03;;;;;;;11.95;7.60;;;;;;;28.69;44.23;100360.60;1770172;80;21280;-57
2023/06/24 13:44:11;;;;;;;9.35;7.55;;;;;;;27.54;44.95;100384.06;1771133;79;21557;-58
2023/06/24 13:47:16;;;;;;;10.38;7.05;;;;;;;27.09;44.84;100406.66;1764282;80;21247;-55
2023/06/24 13:50:23;;;;;;;14.58;9.50;;;;;;;27.09;44.84;100406.66;1771998;80;21562;-56
2023/06/24 13:53:31;;;;;;;22.80;9.83;;;;;;;26.83;45.60;100398.55;1772513;80;21200;-55
2023/06/24 13:56:37;;;;;;;15.85;10.88;;;;;;;26.48;46.12;100408.61;1770134;80;21224;-56
2023/06/24 13:59:44;;;;;;;13.55;9.73;;;;;;;26.05;46.78;100401.24;1771512;80;21486;-55
2023/06/24 14:02:52;;;;;;;15.93;9.15;;;;;;;25.70;47.38;100410.36;1771889;80;21944;-56
2023/06/24 14:05:58;;;;;;;11.33;9.13;;;;;;;25.28;48.01;100396.06;1759772;80;21343;-54
2023/06/24 14:09:04;;;;;;;13.40;9.28;;;;;;;25.01;48.68;100390.03;1772600;80;21884;-56
2023/06/24 14:12:09;;;;;;;12.15;8.18;;;;;;;24.82;49.25;100376.16;1773487;80;21331;-56
2023/06/24 14:15:16;;;;;;;16.20;8.90;;;;;;;24.63;49.73;100369.27;1772366;79;21363;-55
2023/06/24 14:18:22;;;;;;;9.98;8.00;;;;;;;24.51;50.21;100366.36;1771757;79;21335;-57
2023/06/24 14:21:31;;;;;;;12.47;7.60;;;;;;;24.51;50.82;100353.22;1772361;80;21186;-56